createdAt,value
2022-10-11T00:02:02.586Z,102501.25
2022-10-11T00:04:29.188Z,102517.03
2022-10-11T00:06:55.740Z,102512.38
2022-10-11T00:09:23.406Z,102508.50
2022-10-11T00:11:49.924Z,102509.53
2022-10-11T00:14:16.471Z,102506.44
2022-10-11T00:16:44.586Z,102508.78
2022-10-11T00:19:11.515Z,102514.72
2022-10-11T00:21:38.290Z,102509.56
2022-10-11T00:24:05.401Z,102519.13
2022-10-11T00:26:31.888Z,102521.19
2022-10-11T00:28:58.519Z,102525.81
2022-10-11T00:31:25.266Z,102526.38
2022-10-11T00:33:53.181Z,102523.00
2022-10-11T00:36:19.901Z,102527.41
2022-10-11T00:38:46.985Z,102527.41
2022-10-11T00:41:14.987Z,102525.03
2022-10-11T00:43:41.724Z,102527.13
2022-10-11T00:46:27.661Z,102530.97
2022-10-11T00:49:00.617Z,102531.25
2022-10-11T00:51:39.900Z,102543.94
2022-10-11T00:54:07.823Z,102533.81
2022-10-11T00:56:37.688Z,102539.75
2022-10-11T00:59:11.886Z,102548.81
2022-10-11T01:01:38.580Z,102544.41
2022-10-11T01:04:05.698Z,102554.75
2022-10-11T01:06:33.308Z,102560.69
2022-10-11T01:09:00.316Z,102564.59
2022-10-11T01:11:29.812Z,102567.41
2022-10-11T01:14:30.478Z,102566.41
2022-10-11T01:17:02.963Z,102563.25
2022-10-11T01:19:44.342Z,102568.69
2022-10-11T01:22:25.973Z,102564.81
2022-10-11T01:25:04.598Z,102563.22
2022-10-11T01:27:42.214Z,102560.13
2022-10-11T01:30:18.294Z,102558.84
2022-10-11T01:33:21.016Z,102564.78
2022-10-11T01:35:56.535Z,102563.22
2022-10-11T01:38:35.387Z,102572.75
2022-10-11T01:41:25.653Z,102564.22
2022-10-11T01:43:57.769Z,102567.31
2022-10-11T01:46:24.857Z,102570.66
2022-10-11T01:48:54.471Z,102567.31
2022-10-11T01:51:37.013Z,102564.19
2022-10-11T01:54:56.451Z,102564.75
2022-10-11T01:57:46.886Z,102567.28
2022-10-11T02:00:20.387Z,102570.13
2022-10-11T02:02:50.060Z,102577.09
2022-10-11T02:05:35.475Z,102578.63
2022-10-11T02:08:30.971Z,102579.41
2022-10-11T02:11:10.759Z,102583.00
2022-10-11T02:13:46.519Z,102576.53
2022-10-11T02:16:17.940Z,102572.66
2022-10-11T02:18:49.838Z,102572.66
2022-10-11T02:21:20.757Z,102581.69
2022-10-11T02:23:52.090Z,102572.91
2022-10-11T02:26:21.177Z,102575.47
2022-10-11T02:28:50.301Z,102575.47
2022-10-11T02:31:18.170Z,102579.88
2022-10-11T02:34:00.252Z,102584.22
2022-10-11T02:36:37.333Z,102578.03
2022-10-11T02:39:14.323Z,102585.78
2022-10-11T02:41:43.255Z,102587.59
2022-10-11T02:44:15.885Z,102585.50
2022-10-11T02:46:45.429Z,102587.78
2022-10-11T02:49:13.238Z,102589.84
2022-10-11T02:51:40.034Z,102590.34
2022-10-11T02:54:07.693Z,102588.03
2022-10-11T02:56:34.251Z,102589.56
2022-10-11T02:59:00.733Z,102592.63
2022-10-11T03:01:27.565Z,102592.91
2022-10-11T03:03:54.202Z,102592.84
2022-10-11T03:06:22.296Z,102593.13
2022-10-11T03:08:48.874Z,102589.25
2022-10-11T03:11:15.489Z,102596.78
2022-10-11T03:13:41.954Z,102591.84
2022-10-11T03:16:08.912Z,102590.81
2022-10-11T03:18:35.568Z,102593.06
2022-10-11T03:21:02.271Z,102596.19
2022-10-11T03:23:28.943Z,102599.53
2022-10-11T03:25:55.625Z,102594.84
2022-10-11T03:28:22.470Z,102589.69
2022-10-11T03:30:50.442Z,102595.09
2022-10-11T03:33:17.514Z,102587.56
2022-10-11T03:35:45.762Z,102605.69
2022-10-11T03:38:18.564Z,102602.06
2022-10-11T03:40:45.175Z,102605.44
2022-10-11T03:43:11.842Z,102605.44
2022-10-11T03:45:39.016Z,102601.53
2022-10-11T03:48:05.895Z,102600.75
2022-10-11T03:50:32.619Z,102614.97
2022-10-11T03:52:59.110Z,102600.94
2022-10-11T03:55:25.780Z,102610.75
2022-10-11T03:57:52.392Z,102607.41
2022-10-11T04:00:18.893Z,102608.69
2022-10-11T04:02:45.372Z,102616.66
2022-10-11T04:05:12.720Z,102622.88
2022-10-11T04:07:40.140Z,102613.56
2022-10-11T04:10:07.759Z,102620.03
2022-10-11T04:12:34.884Z,102617.69
2022-10-11T04:15:01.333Z,102635.25
2022-10-11T04:17:27.929Z,102618.44
2022-10-11T04:19:54.427Z,102632.41
2022-10-11T04:22:20.929Z,102636.53
2022-10-11T04:24:47.482Z,102638.03
2022-10-11T04:27:14.056Z,102643.19
2022-10-11T04:29:40.520Z,102639.56
2022-10-11T04:32:07.173Z,102645.75
2022-10-11T04:34:33.733Z,102641.84
2022-10-11T04:37:00.328Z,102637.72
2022-10-11T04:39:26.898Z,102642.63
2022-10-11T04:41:53.370Z,102652.72
2022-10-11T04:44:19.938Z,102640.75
2022-10-11T04:46:46.402Z,102645.91
2022-10-11T04:49:15.127Z,102652.63
2022-10-11T04:51:41.638Z,102646.69
2022-10-11T04:54:08.133Z,102647.72
2022-10-11T04:56:34.677Z,102657.00
2022-10-11T04:59:01.308Z,102653.13
2022-10-11T05:01:28.096Z,102660.56
2022-10-11T05:03:54.702Z,102659.56
2022-10-11T05:06:21.326Z,102657.50
2022-10-11T05:08:48.293Z,102662.91
2022-10-11T05:11:16.391Z,102658.19
2022-10-11T05:13:43.953Z,102656.16
2022-10-11T05:16:11.914Z,102666.19
2022-10-11T05:18:39.647Z,102663.34
2022-10-11T05:21:14.907Z,102667.72
2022-10-11T05:23:41.817Z,102666.41
2022-10-11T05:26:15.655Z,102659.63
2022-10-11T05:28:42.592Z,102668.47
2022-10-11T05:31:09.318Z,102673.31
2022-10-11T05:33:36.138Z,102669.41
2022-10-11T05:36:03.506Z,102673.28
2022-10-11T05:38:30.302Z,102683.06
2022-10-11T05:41:00.313Z,102682.03
2022-10-11T05:43:27.614Z,102670.66
2022-10-11T05:45:54.685Z,102664.47
2022-10-11T05:48:21.884Z,102672.22
2022-10-11T05:50:48.487Z,102683.84
2022-10-11T05:53:14.962Z,102686.41
2022-10-11T05:55:43.347Z,102687.69
2022-10-11T05:58:14.913Z,102691.81
2022-10-11T06:00:41.405Z,102681.94
2022-10-11T06:03:11.024Z,102705.72
2022-10-11T06:05:37.612Z,102703.06
2022-10-11T06:08:06.684Z,102698.94
2022-10-11T06:10:33.348Z,102692.47
2022-10-11T06:12:59.832Z,102701.03
2022-10-11T06:15:26.407Z,102698.44
2022-10-11T06:17:53.213Z,102700.72
2022-10-11T06:20:19.823Z,102702.28
2022-10-11T06:22:46.319Z,102704.63
2022-10-11T06:25:12.836Z,102707.72
2022-10-11T06:27:39.256Z,102702.56
2022-10-11T06:30:07.430Z,102706.50
2022-10-11T06:32:33.973Z,102715.25
2022-10-11T06:35:00.614Z,102720.16
2022-10-11T06:37:27.236Z,102723.28
2022-10-11T06:39:53.839Z,102718.63
2022-10-11T06:42:20.338Z,102722.28
2022-10-11T06:44:46.997Z,102727.00
2022-10-11T06:47:13.656Z,102725.88
2022-10-11T06:49:40.401Z,102737.84
2022-10-11T06:52:07.036Z,102737.13
2022-10-11T06:54:33.565Z,102736.03
2022-10-11T06:57:00.075Z,102727.56
2022-10-11T06:59:26.778Z,102744.66
2022-10-11T07:01:53.320Z,102746.22
2022-10-11T07:04:19.841Z,102738.22
2022-10-11T07:06:46.265Z,102737.94
2022-10-11T07:09:12.796Z,102745.19
2022-10-11T07:11:39.228Z,102742.06
2022-10-11T07:14:07.980Z,102756.94
2022-10-11T07:16:37.885Z,102762.56
2022-10-11T07:19:06.550Z,102766.00
2022-10-11T07:21:34.602Z,102760.84
2022-10-11T07:24:01.868Z,102758.81
2022-10-11T07:26:33.831Z,102762.44
2022-10-11T07:29:05.205Z,102772.03
2022-10-11T07:31:31.744Z,102775.69
2022-10-11T07:33:58.219Z,102775.53
2022-10-11T07:36:25.602Z,102776.38
2022-10-11T07:38:52.127Z,102778.53
2022-10-11T07:41:19.335Z,102783.72
2022-10-11T07:43:47.901Z,102782.69
2022-10-11T07:46:15.229Z,102787.00
2022-10-11T07:48:42.295Z,102800.09
2022-10-11T07:51:11.754Z,102798.03
2022-10-11T07:53:40.230Z,102799.88
2022-10-11T07:56:08.393Z,102806.97
2022-10-11T07:58:35.610Z,102809.56
2022-10-11T08:01:02.179Z,102807.00
2022-10-11T08:03:29.658Z,102809.59
2022-10-11T08:06:00.608Z,102813.53
2022-10-11T08:08:27.459Z,102809.66
2022-10-11T08:10:54.165Z,102807.09
2022-10-11T08:13:20.657Z,102806.84
2022-10-11T08:15:47.071Z,102820.59
2022-10-11T08:18:13.556Z,102823.72
2022-10-11T08:20:40.449Z,102831.22
2022-10-11T08:23:07.238Z,102836.69
2022-10-11T08:25:39.387Z,102832.84
2022-10-11T08:28:06.849Z,102821.66
2022-10-11T08:30:35.799Z,102832.53
2022-10-11T08:33:07.564Z,102828.91
2022-10-11T08:35:36.278Z,102834.38
2022-10-11T08:38:03.306Z,102835.38
2022-10-11T08:40:34.987Z,102838.97
2022-10-11T08:43:08.185Z,102841.84
2022-10-11T08:45:50.941Z,102848.28
2022-10-11T08:48:20.790Z,102845.63
2022-10-11T08:50:51.086Z,102834.94
2022-10-11T08:53:42.538Z,102842.38
2022-10-11T08:56:13.223Z,102847.06
2022-10-11T08:58:55.893Z,102849.88
2022-10-11T09:01:25.944Z,102845.84
2022-10-11T09:03:53.071Z,102846.38
2022-10-11T09:06:31.650Z,102849.41
2022-10-11T09:09:18.173Z,102845.25
2022-10-11T09:12:02.787Z,102851.03
2022-10-11T09:14:39.207Z,102842.25
2022-10-11T09:17:15.588Z,102843.59
2022-10-11T09:19:52.160Z,102849.69
2022-10-11T09:22:43.327Z,102844.34
2022-10-11T09:25:24.642Z,102842.78
2022-10-11T09:28:38.894Z,102843.28
2022-10-11T09:31:09.919Z,102835.44
2022-10-11T09:33:40.292Z,102837.28
2022-10-11T09:36:23.031Z,102849.50
2022-10-11T09:39:07.050Z,102849.28
2022-10-11T09:41:42.797Z,102848.22
2022-10-11T09:44:21.565Z,102850.22
2022-10-11T09:46:49.666Z,102840.22
2022-10-11T09:49:19.248Z,102846.03
2022-10-11T09:51:52.469Z,102842.38
2022-10-11T09:54:22.295Z,102840.69
2022-10-11T09:56:48.780Z,102847.78
2022-10-11T09:59:29.457Z,102844.53
2022-10-11T10:02:14.681Z,102847.16
2022-10-11T10:05:21.749Z,102846.41
2022-10-11T10:08:08.393Z,102839.59
2022-10-11T10:10:46.182Z,102845.59
2022-10-11T10:13:43.750Z,102843.13
2022-10-11T10:16:28.764Z,102827.06
2022-10-11T10:18:58.384Z,102839.16
2022-10-11T10:21:37.135Z,102839.00
2022-10-11T10:24:40.754Z,102830.47
2022-10-11T10:27:14.829Z,102828.59
2022-10-11T10:29:41.751Z,102827.59
2022-10-11T10:32:21.043Z,102828.72
2022-10-11T10:34:50.435Z,102825.59
2022-10-11T10:37:43.043Z,102832.22
2022-10-11T10:40:16.783Z,102830.66
2022-10-11T10:42:43.248Z,102820.06
2022-10-11T10:45:21.493Z,102828.94
2022-10-11T10:47:54.501Z,102828.22
2022-10-11T10:50:42.060Z,102826.91
2022-10-11T10:53:42.101Z,102824.50
2022-10-11T10:56:19.817Z,102814.09
2022-10-11T10:59:24.023Z,102816.66
2022-10-11T11:02:06.737Z,102808.59
2022-10-11T11:04:50.821Z,102811.84
2022-10-11T11:07:36.938Z,102811.38
2022-10-11T11:10:25.373Z,102817.94
2022-10-11T11:13:10.498Z,102810.72
2022-10-11T11:15:47.880Z,102802.38
2022-10-11T11:18:25.864Z,102802.38
2022-10-11T11:21:01.427Z,102803.25
2022-10-11T11:23:52.636Z,102804.25
2022-10-11T11:26:44.321Z,102807.69
2022-10-11T11:29:34.330Z,102796.72
2022-10-11T11:32:25.747Z,102794.56
2022-10-11T11:35:01.193Z,102795.09
2022-10-11T11:37:36.288Z,102793.78
2022-10-11T11:40:27.152Z,102793.78
2022-10-11T11:42:59.511Z,102782.97
2022-10-11T11:45:45.155Z,102781.97
2022-10-11T11:48:25.755Z,102778.56
2022-10-11T11:51:17.757Z,102773.09
2022-10-11T11:53:53.359Z,102775.00
2022-10-11T11:56:44.736Z,102778.81
2022-10-11T11:59:42.128Z,102776.31
2022-10-11T12:02:43.694Z,102768.88
2022-10-11T12:05:13.582Z,102765.00
2022-10-11T12:08:06.605Z,102771.94
2022-10-11T12:10:37.744Z,102767.31
2022-10-11T12:13:17.216Z,102766.47
2022-10-11T12:15:59.266Z,102770.22
2022-10-11T12:18:27.570Z,102771.28
2022-10-11T12:21:18.600Z,102762.03
2022-10-11T12:23:47.740Z,102759.59
2022-10-11T12:26:29.686Z,102759.50
2022-10-11T12:29:20.757Z,102756.41
2022-10-11T12:31:51.610Z,102753.56
2022-10-11T12:37:19.474Z,102745.50
2022-10-11T12:40:00.093Z,102747.44
2022-10-11T12:42:36.967Z,102745.78
2022-10-11T12:45:13.169Z,102741.69
2022-10-11T12:48:01.515Z,102748.59
2022-10-11T12:50:37.013Z,102731.06
2022-10-11T12:53:33.124Z,102743.22
2022-10-11T12:56:26.359Z,102751.66
2022-10-11T12:59:02.998Z,102735.81
2022-10-11T13:01:36.853Z,102745.19
2022-10-11T13:04:09.853Z,102738.09
2022-10-11T13:06:45.307Z,102737.06
2022-10-11T13:09:18.075Z,102740.34
2022-10-11T13:12:13.677Z,102728.25
2022-10-11T13:14:48.331Z,102731.47
2022-10-11T13:17:34.471Z,102739.25
2022-10-11T13:20:17.325Z,102736.78
2022-10-11T13:22:47.470Z,102734.97
2022-10-11T13:25:29.872Z,102734.75
2022-10-11T13:27:59.531Z,102738.00
2022-10-11T13:30:32.039Z,102725.97
2022-10-11T13:33:00.067Z,102733.81
2022-10-11T13:35:33.134Z,102736.84
2022-10-11T13:38:00.430Z,102734.72
2022-10-11T13:40:28.130Z,102725.66
2022-10-11T13:42:55.252Z,102716.47
2022-10-11T13:45:24.375Z,102721.13
2022-10-11T13:47:53.110Z,102721.28
2022-10-11T13:50:26.471Z,102717.31
2022-10-11T13:52:56.320Z,102715.72
2022-10-11T13:55:29.226Z,102726.13
2022-10-11T13:57:57.687Z,102722.22
2022-10-11T14:00:34.942Z,102719.09
2022-10-11T14:03:17.143Z,102714.56
2022-10-11T14:05:56.251Z,102715.13
2022-10-11T14:08:34.351Z,102706.13
2022-10-11T14:11:06.068Z,102704.94
2022-10-11T14:13:50.039Z,102708.66
2022-10-11T14:16:16.431Z,102714.16
2022-10-11T14:18:51.191Z,102702.88
2022-10-11T14:21:21.107Z,102710.47
2022-10-11T14:23:51.015Z,102710.13
2022-10-11T14:26:19.188Z,102700.69
2022-10-11T14:28:48.822Z,102712.00
2022-10-11T14:31:15.487Z,102701.81
2022-10-11T14:33:42.125Z,102709.78
2022-10-11T14:36:08.931Z,102702.25
2022-10-11T14:38:35.596Z,102699.63
2022-10-11T14:41:02.191Z,102700.38
2022-10-11T14:43:28.631Z,102694.97
2022-10-11T14:45:55.086Z,102691.97
2022-10-11T14:48:43.164Z,102686.06
2022-10-11T14:51:13.514Z,102694.88
2022-10-11T14:53:46.117Z,102686.31
2022-10-11T14:56:17.736Z,102695.09
2022-10-11T14:58:47.354Z,102688.25
2022-10-11T15:01:14.636Z,102694.38
2022-10-11T15:03:41.515Z,102688.63
2022-10-11T15:06:16.493Z,102693.44
2022-10-11T15:08:42.987Z,102694.94
2022-10-11T15:11:16.647Z,102680.84
2022-10-11T15:13:43.132Z,102685.69
2022-10-11T15:16:16.239Z,102684.00
2022-10-11T15:18:44.090Z,102678.88
2022-10-11T15:21:14.540Z,102679.09
2022-10-11T15:23:40.989Z,102679.81
2022-10-11T15:26:09.695Z,102682.59
2022-10-11T15:28:36.292Z,102686.53
2022-10-11T15:31:02.955Z,102675.31
2022-10-11T15:33:29.443Z,102679.31
2022-10-11T15:35:55.961Z,102674.56
2022-10-11T15:38:24.655Z,102674.78
2022-10-11T15:40:52.438Z,102681.44
2022-10-11T15:43:24.279Z,102672.97
2022-10-11T15:45:51.469Z,102670.06
2022-10-11T15:48:21.756Z,102670.88
2022-10-11T15:50:49.981Z,102664.94
2022-10-11T15:53:21.662Z,102675.91
2022-10-11T15:55:50.567Z,102662.38
2022-10-11T15:58:16.957Z,102660.91
2022-10-11T16:00:45.756Z,102657.09
2022-10-11T16:03:14.645Z,102659.00
2022-10-11T16:05:42.529Z,102654.75
2022-10-11T16:08:10.038Z,102659.19
2022-10-11T16:10:37.511Z,102659.00
2022-10-11T16:13:04.088Z,102656.97
2022-10-11T16:15:31.146Z,102656.38
2022-10-11T16:17:57.802Z,102654.75
2022-10-11T16:20:25.826Z,102655.34
2022-10-11T16:22:54.037Z,102664.97
2022-10-11T16:25:24.671Z,102656.06
2022-10-11T16:27:51.685Z,102661.22
2022-10-11T16:30:19.627Z,102661.31
2022-10-11T16:32:46.404Z,102657.41
2022-10-11T16:35:14.464Z,102663.59
2022-10-11T16:37:41.438Z,102669.06
2022-10-11T16:40:09.643Z,102667.38
2022-10-11T16:42:39.181Z,102667.09
2022-10-11T16:45:06.781Z,102669.78
2022-10-11T16:47:33.217Z,102674.44
2022-10-11T16:50:00.201Z,102672.22
2022-10-11T16:52:26.849Z,102677.22
2022-10-11T16:54:53.305Z,102679.22
2022-10-11T16:57:20.141Z,102670.47
2022-10-11T16:59:46.899Z,102677.44
2022-10-11T17:02:19.508Z,102678.22
2022-10-11T17:04:46.575Z,102672.66
2022-10-11T17:07:13.660Z,102673.31
2022-10-11T17:09:44.009Z,102676.50
2022-10-11T17:12:13.135Z,102676.25
2022-10-11T17:14:40.709Z,102674.06
2022-10-11T17:17:08.558Z,102674.19
2022-10-11T17:19:44.873Z,102675.06
2022-10-11T17:22:17.440Z,102677.34
2022-10-11T17:24:44.243Z,102669.47
2022-10-11T17:27:11.338Z,102672.94
2022-10-11T17:29:38.302Z,102689.97
2022-10-11T17:32:05.262Z,102685.44
2022-10-11T17:34:31.992Z,102685.06
2022-10-11T17:36:58.544Z,102693.47
2022-10-11T17:39:25.847Z,102687.53
2022-10-11T17:41:52.956Z,102675.44
2022-10-11T17:44:20.351Z,102687.34
2022-10-11T17:46:47.693Z,102680.19
2022-10-11T17:49:17.117Z,102676.22
2022-10-11T17:51:44.256Z,102676.59
2022-10-11T17:54:13.049Z,102683.09
2022-10-11T17:56:42.970Z,102673.00
2022-10-11T17:59:16.024Z,102682.00
2022-10-11T18:01:45.063Z,102681.69
2022-10-11T18:04:16.604Z,102686.34
2022-10-11T18:06:56.743Z,102671.13
2022-10-11T18:09:25.133Z,102676.72
2022-10-11T18:11:51.955Z,102675.94
2022-10-11T18:14:19.098Z,102675.66
2022-10-11T18:16:45.810Z,102676.16
2022-10-11T18:19:13.697Z,102677.25
2022-10-11T18:21:41.111Z,102684.97
2022-10-11T18:24:12.570Z,102683.28
2022-10-11T18:26:39.957Z,102684.84
2022-10-11T18:29:06.904Z,102675.94
2022-10-11T18:31:35.445Z,102674.97
2022-10-11T18:34:03.595Z,102675.03
2022-10-11T18:36:31.119Z,102683.78
2022-10-11T18:39:01.109Z,102675.31
2022-10-11T18:41:31.834Z,102675.78
2022-10-11T18:44:02.222Z,102683.81
2022-10-11T18:46:29.674Z,102673.66
2022-10-11T18:48:57.372Z,102674.53
2022-10-11T18:51:32.702Z,102682.25
2022-10-11T18:54:00.013Z,102676.22
2022-10-11T18:56:29.095Z,102669.91
2022-10-11T18:58:57.307Z,102673.00
2022-10-11T19:01:33.358Z,102668.94
2022-10-11T19:04:01.736Z,102666.50
2022-10-11T19:06:34.468Z,102670.94
2022-10-11T19:09:06.522Z,102666.16
2022-10-11T19:11:33.321Z,102661.97
2022-10-11T19:14:09.806Z,102667.47
2022-10-11T19:16:39.813Z,102666.88
2022-10-11T19:19:07.580Z,102660.53
2022-10-11T19:21:34.137Z,102669.84
2022-10-11T19:24:00.596Z,102665.84
2022-10-11T19:26:31.419Z,102660.28
2022-10-11T19:29:04.038Z,102662.75
2022-10-11T19:31:31.494Z,102653.31
2022-10-11T19:33:58.628Z,102655.31
2022-10-11T19:36:26.091Z,102660.16
2022-10-11T19:38:56.865Z,102656.88
2022-10-11T19:41:26.202Z,102658.69
2022-10-11T19:43:53.707Z,102655.72
2022-10-11T19:46:44.333Z,102651.19
2022-10-11T19:49:08.898Z,102661.56
2022-10-11T19:51:37.377Z,102649.53
2022-10-11T19:54:06.498Z,102659.78
2022-10-11T19:56:34.099Z,102649.25
2022-10-11T19:59:01.943Z,102649.38
2022-10-11T20:01:30.828Z,102653.16
2022-10-11T20:04:05.920Z,102648.03
2022-10-11T20:06:38.843Z,102649.22
2022-10-11T20:11:53.728Z,102648.00
2022-10-11T20:14:20.536Z,102647.59
2022-10-11T20:16:50.136Z,102651.88
2022-10-11T20:19:17.524Z,102654.56
2022-10-11T20:21:45.237Z,102656.78
2022-10-11T20:24:12.250Z,102654.56
2022-10-11T20:26:39.358Z,102656.00
2022-10-11T20:29:06.058Z,102656.09
2022-10-11T20:31:35.203Z,102656.72
2022-10-11T20:34:04.097Z,102652.53
2022-10-11T20:36:31.794Z,102657.72
2022-10-11T20:38:59.398Z,102652.84
2022-10-11T20:41:34.408Z,102651.13
2022-10-11T20:44:02.599Z,102656.88
2022-10-11T20:46:32.346Z,102650.78
2022-10-11T20:49:02.346Z,102657.44
2022-10-11T20:51:30.750Z,102665.22
2022-10-11T20:53:58.154Z,102665.31
2022-10-11T20:56:24.947Z,102665.41
2022-10-11T20:58:53.306Z,102660.47
2022-10-11T21:01:23.003Z,102651.78
2022-10-11T21:03:50.506Z,102656.75
2022-10-11T21:06:17.010Z,102652.69
2022-10-11T21:08:43.525Z,102654.22
2022-10-11T21:11:10.594Z,102656.69
2022-10-11T21:13:37.706Z,102647.91
2022-10-11T21:16:06.632Z,102655.50
2022-10-11T21:18:33.071Z,102657.84
2022-10-11T21:21:08.378Z,102652.19
2022-10-11T21:23:35.236Z,102664.41
2022-10-11T21:26:03.463Z,102663.94
2022-10-11T21:28:30.182Z,102658.78
2022-10-11T21:31:06.095Z,102649.50
2022-10-11T21:33:33.759Z,102660.47
2022-10-11T21:36:13.402Z,102657.94
2022-10-11T21:38:40.144Z,102657.44
2022-10-11T21:41:18.111Z,102656.50
2022-10-11T21:43:44.588Z,102663.25
2022-10-11T21:46:12.918Z,102658.88
2022-10-11T21:48:40.143Z,102661.00
2022-10-11T21:51:07.112Z,102661.03
2022-10-11T21:53:34.140Z,102656.69
2022-10-11T21:56:01.267Z,102661.41
2022-10-11T21:58:28.113Z,102663.03
2022-10-11T22:00:55.007Z,102662.53
2022-10-11T22:03:21.860Z,102658.16
2022-10-11T22:05:48.570Z,102662.28
2022-10-11T22:08:15.450Z,102664.72
2022-10-11T22:10:53.314Z,102669.13
2022-10-11T22:13:19.798Z,102660.38
2022-10-11T22:15:46.298Z,102652.88
2022-10-11T22:18:12.923Z,102657.59
2022-10-11T22:20:39.423Z,102657.09
2022-10-11T22:23:05.960Z,102656.09
2022-10-11T22:25:37.145Z,102662.56
2022-10-11T22:28:04.585Z,102654.09
2022-10-11T22:30:31.677Z,102652.53
2022-10-11T22:32:58.288Z,102652.56
2022-10-11T22:35:24.751Z,102659.84
2022-10-11T22:37:51.858Z,102657.31
2022-10-11T22:40:19.315Z,102655.53
2022-10-11T22:42:46.172Z,102656.84
2022-10-11T22:45:12.651Z,102651.16
2022-10-11T22:47:40.446Z,102645.75
2022-10-11T22:50:07.069Z,102650.41
2022-10-11T22:52:33.607Z,102646.03
2022-10-11T22:55:00.023Z,102653.28
2022-10-11T22:57:26.427Z,102650.25
2022-10-11T22:59:52.865Z,102644.28
2022-10-11T23:02:19.459Z,102643.50
2022-10-11T23:04:45.915Z,102645.81
2022-10-11T23:07:12.502Z,102641.41
2022-10-11T23:09:38.953Z,102646.59
2022-10-11T23:12:05.699Z,102647.13
2022-10-11T23:14:32.143Z,102642.69
2022-10-11T23:16:58.546Z,102648.16
2022-10-11T23:19:25.026Z,102632.63
2022-10-11T23:21:51.471Z,102634.19
2022-10-11T23:24:17.924Z,102637.00
2022-10-11T23:26:44.370Z,102633.63
2022-10-11T23:29:10.865Z,102635.47
2022-10-11T23:31:37.374Z,102629.00
2022-10-11T23:34:03.989Z,102621.97
2022-10-11T23:36:30.560Z,102618.91
2022-10-11T23:38:58.429Z,102616.84
2022-10-11T23:41:27.014Z,102607.00
2022-10-11T23:43:53.648Z,102618.16
2022-10-11T23:46:20.228Z,102624.09
2022-10-11T23:48:46.708Z,102624.38
2022-10-11T23:51:14.114Z,102621.28
2022-10-11T23:53:40.717Z,102624.44
2022-10-11T23:56:07.904Z,102622.88
2022-10-11T23:58:34.411Z,102615.38
